Data for 04/23/2015

Time Sea-Level Adjusted Pressure Absolute Pressure Temperature Relative Humidity Dew Point   
(mb) (inHg) (mb) (inHg) (C) (F) (%) (C) (F)
00:05 1013 29.91 842 24.86 6 42.8 87 4 39.3
00:10 1013 29.91 842 24.86 6.1 43 84 3.7 38.6
00:15 1013 29.91 842 24.86 6.3 43.3 84 3.8 38.9
00:20 1012 29.88 842 24.86 6.3 43.3 85 3.9 39.1
00:25 1012 29.88 842 24.86 6.2 43.2 85 4 39.1
00:30 1012 29.88 842 24.86 6.2 43.2 85 3.9 39.1
00:35 1012 29.88 842 24.86 6.3 43.3 85 3.9 39
00:40 1012 29.88 842 24.86 6.4 43.4 85 3.9 39.1
00:45 1013 29.91 842 24.86 6.4 43.5 85 4 39.2
00:50 1013 29.91 842 24.86 6.4 43.6 85 4 39.2
00:55 1013 29.91 842 24.86 6.5 43.8 83 3.9 39
01:00 1013 29.91 842 24.86 6.6 43.8 84 4 39.1
01:05 1013 29.91 842 24.86 6.6 43.8 84 4 39.2
01:10 1013 29.91 842 24.86 6.5 43.8 85 4.2 39.5
01:15 1013 29.91 842 24.86 6.4 43.5 86 4.2 39.5
01:20 1012 29.88 842 24.86 6.2 43.2 86 4.1 39.4
01:25 1012 29.88 842 24.86 6.1 43 86 4 39.2
01:30 1012 29.88 842 24.86 6.1 42.9 87 4 39.2
01:35 1012 29.88 841 24.83 5.9 42.7 88 4.1 39.3
01:40 1012 29.88 841 24.83 5.9 42.6 88 4 39.2
01:45 1012 29.88 841 24.83 5.9 42.6 86 3.8 38.8
01:50 1012 29.88 841 24.83 6.1 42.9 85 3.7 38.7
01:55 1012 29.88 841 24.83 6.2 43.1 84 3.7 38.6
02:00 1012 29.88 841 24.83 6.2 43.2 83 3.6 38.5
02:05 1012 29.88 841 24.83 6.2 43.2 83 3.6 38.5
02:10 1012 29.88 841 24.83 6.3 43.4 83 3.7 38.7
02:15 1012 29.88 841 24.83 6.5 43.6 83 3.8 38.9
02:20 1012 29.88 841 24.83 6.5 43.6 83 3.8 38.9
02:25 1012 29.88 841 24.83 6.5 43.7 83 3.9 39
02:30 1012 29.88 841 24.83 6.5 43.7 84 4 39.2
02:35 1012 29.88 841 24.83 6.4 43.5 84 4 39.1
02:40 1012 29.88 841 24.83 6.4 43.5 83 3.8 38.8
02:45 1012 29.88 842 24.86 6.3 43.3 85 3.9 39
02:50 1012 29.88 842 24.86 6.4 43.5 83 3.7 38.6
02:55 1012 29.88 842 24.86 6.4 43.5 83 3.8 38.8
03:00 1012 29.88 842 24.86 6.4 43.5 84 3.9 39
03:05 1012 29.88 842 24.86 6.4 43.5 85 4 39.2
03:10 1012 29.88 842 24.86 6.4 43.5 84 4 39.1
03:15 1012 29.88 842 24.86 6.4 43.4 85 4.1 39.3
03:20 1012 29.88 842 24.86 6.4 43.5 85 4.1 39.4
03:25 1012 29.88 842 24.86 6.4 43.6 85 4.1 39.4
03:30 1012 29.88 842 24.86 6.5 43.7 86 4.3 39.8
03:35 1012 29.88 842 24.86 6.5 43.8 85 4.3 39.7
03:40 1012 29.88 842 24.86 6.6 43.8 85 4.2 39.5
03:45 1012 29.88 842 24.86 6.5 43.7 85 4.2 39.6
03:50 1012 29.88 842 24.86 6.5 43.7 86 4.3 39.7
03:55 1012 29.88 842 24.86 6.5 43.7 86 4.4 39.9
04:00 1012 29.88 842 24.86 6.5 43.7 87 4.6 40.2
04:05 1012 29.88 842 24.86 6.6 43.9 86 4.4 40
04:10 1012 29.88 842 24.86 6.7 44 87 4.7 40.4
04:15 1013 29.91 842 24.86 6.7 44.1 86 4.5 40.1
04:20 1013 29.91 842 24.86 6.7 44 87 4.7 40.4
04:25 1013 29.91 842 24.86 6.6 43.8 88 4.7 40.4
04:30 1013 29.91 842 24.86 6.5 43.7 88 4.6 40.2
04:35 1013 29.91 842 24.86 6.4 43.6 89 4.7 40.5
04:40 1013 29.91 842 24.86 6.5 43.7 89 4.8 40.7
04:45 1013 29.91 842 24.86 6.4 43.6 89 4.8 40.6
04:50 1013 29.91 842 24.86 6.6 43.8 89 4.9 40.9
04:55 1013 29.91 842 24.86 6.6 43.8 91 5.2 41.3
05:00 1013 29.91 842 24.86 6.6 43.9 91 5.3 41.5
05:05 1013 29.91 842 24.86 6.6 43.9 91 5.3 41.5
05:10 1013 29.91 842 24.86 6.6 44 91 5.3 41.5
05:15 1013 29.91 842 24.86 6.6 43.8 91 5.2 41.4
05:20 1013 29.91 842 24.86 6.5 43.7 91 5.2 41.3
05:25 1013 29.91 842 24.86 6.5 43.6 91 5.1 41.2
05:30 1013 29.91 842 24.86 6.5 43.7 91 5.2 41.3
05:35 1013 29.91 842 24.86 6.5 43.7 91 5.1 41.2
05:40 1013 29.91 842 24.86 6.5 43.7 91 5.1 41.2
05:45 1013 29.91 842 24.86 6.5 43.7 90 5 41
05:50 1013 29.91 842 24.86 6.6 43.9 90 5.1 41.2
05:55 1013 29.91 842 24.86 6.7 44.1 90 5.1 41.2
06:00 1013 29.91 842 24.86 6.7 44 89 5 41
06:05 1013 29.91 842 24.86 6.6 43.8 88 4.8 40.6
06:10 1013 29.91 842 24.86 6.5 43.8 88 4.7 40.5
06:15 1013 29.91 842 24.86 6.6 43.8 88 4.7 40.4
06:20 1012 29.88 842 24.86 6.6 43.9 87 4.7 40.4
06:25 1013 29.91 842 24.86 6.7 44 87 4.7 40.5
06:30 1013 29.91 842 24.86 6.6 43.9 87 4.7 40.4
06:35 1013 29.91 842 24.86 6.7 44.1 86 4.6 40.2
06:40 1013 29.91 842 24.86 7 44.6 86 4.7 40.5
06:45 1013 29.91 842 24.86 7 44.6 86 4.8 40.7
06:50 1013 29.91 842 24.86 7 44.7 86 4.9 40.8
06:55 1013 29.91 842 24.86 7.1 44.7 86 4.8 40.7
07:00 1013 29.91 842 24.86 7.2 45 86 5.1 41.1
07:05 1013 29.91 842 24.86 7.3 45.2 85 5 40.9
07:10 1013 29.91 842 24.86 7.3 45.2 85 5 41.1
07:15 1013 29.91 842 24.86 7.2 45 86 5.1 41.1
07:20 1013 29.91 842 24.86 7 44.7 85 4.8 40.6
07:25 1013 29.91 842 24.86 6.9 44.4 85 4.5 40.2
07:30 1013 29.91 842 24.86 6.7 44.1 82 3.9 39
07:35 1013 29.91 842 24.86 6.5 43.8 81 3.6 38.4
07:40 1013 29.91 842 24.86 6.6 43.8 81 3.6 38.5
07:45 1013 29.91 842 24.86 6.7 44 81 3.7 38.7
07:50 1013 29.91 842 24.86 6.9 44.4 82 4.1 39.3
07:55 1013 29.91 842 24.86 7 44.6 82 4.1 39.3
08:00 1013 29.91 842 24.86 7 44.5 81 3.9 39.1
08:05 1013 29.91 842 24.86 7 44.6 79 3.5 38.3
08:10 1013 29.91 842 24.86 7 44.6 79 3.7 38.6
08:15 1013 29.91 842 24.86 7 44.6 79 3.6 38.5
08:20 1013 29.91 842 24.86 7 44.6 76 3 37.4
08:25 1013 29.91 842 24.86 7.1 44.9 77 3.3 38
08:30 1013 29.91 842 24.86 7.2 45 78 3.6 38.4
08:35 1013 29.91 842 24.86 7.3 45.1 76 3.3 38
08:40 1013 29.91 842 24.86 7.4 45.2 77 3.7 38.6
08:45 1013 29.91 842 24.86 7.5 45.5 76 3.5 38.3
08:50 1013 29.91 842 24.86 7.6 45.6 74 3.2 37.8
08:55 1013 29.91 842 24.86 7.8 46 71 2.9 37.2
09:00 1013 29.91 842 24.86 7.8 46.1 73 3.3 38
09:05 1013 29.91 842 24.86 7.8 46.1 73 3.4 38.1
09:10 1012 29.88 842 24.86 8.3 46.9 73 3.8 38.8
09:15 1012 29.88 842 24.86 9.3 48.8 69 4.1 39.3
09:20 1012 29.88 842 24.86 9.9 49.7 66 3.8 38.9
09:25 1012 29.88 842 24.86 10.1 50.2 65 3.9 39
09:30 1012 29.88 842 24.86 10.5 50.8 63 3.7 38.7
09:35 1012 29.88 842 24.86 10.6 51 62 3.5 38.4
09:40 1012 29.88 842 24.86 10.9 51.7 61 3.8 38.9
09:45 1012 29.88 841 24.83 11.1 52 60 3.7 38.6
09:50 1012 29.88 841 24.83 10.9 51.6 64 4.4 39.8
09:55 1012 29.88 841 24.83 10.8 51.4 64 4.2 39.6
10:00 1012 29.88 841 24.83 11.1 52.1 61 4 39.2
10:05 1012 29.88 841 24.83 11.7 53 59 3.9 39.1
10:10 1012 29.88 842 24.86 10.9 51.6 63 4.2 39.5
10:15 1012 29.88 841 24.83 10.2 50.4 66 4.2 39.5
10:20 1012 29.88 841 24.83 10.2 50.4 65 3.9 39
10:25 1012 29.88 841 24.83 10.7 51.3 62 3.8 38.9
10:30 1012 29.88 841 24.83 10.9 51.6 60 3.5 38.3
10:35 1012 29.88 841 24.83 11.3 52.4 58 3.4 38.2
10:40 1012 29.88 841 24.83 10.6 51.1 61 3.4 38.2
10:45 1012 29.88 841 24.83 11.6 52.9 56 3.2 37.7
10:50 1012 29.88 841 24.83 12.5 54.5 55 3.8 38.8
10:55 1012 29.88 841 24.83 12.6 54.6 53 3.2 37.7
11:00 1012 29.88 841 24.83 12.8 55 54 3.9 39
11:05 1012 29.88 841 24.83 12.7 54.8 55 3.9 39
11:10 1012 29.88 841 24.83 11.9 53.4 56 3.5 38.4
11:15 1012 29.88 841 24.83 12.5 54.5 56 4 39.2
11:20 1011 29.85 841 24.83 12.8 55 52 3.3 37.9
11:25 1011 29.85 841 24.83 13.1 55.6 52 3.6 38.5
11:30 1011 29.85 841 24.83 12.9 55.1 54 3.8 38.9
11:35 1011 29.85 840 24.81 12.5 54.5 55 3.9 38.9
11:40 1011 29.85 840 24.81 12.6 54.7 53 3.2 37.8
11:45 1011 29.85 840 24.81 13 55.4 51 3.1 37.6
11:50 1011 29.85 840 24.81 12.7 54.8 54 3.7 38.6
11:55 1011 29.85 840 24.81 12.8 55 52 3.3 38
12:00 1011 29.85 840 24.81 14 57.1 49 3.4 38.1
12:05 1011 29.85 840 24.81 14.7 58.4 45 3.1 37.5
12:10 1011 29.85 840 24.81 14.6 58.2 48 3.7 38.6
12:15 1010 29.83 840 24.81 14.5 58 49 3.9 39.1
12:20 1010 29.83 840 24.81 14.6 58.3 47 3.6 38.5
12:25 1010 29.83 839 24.78 14.8 58.6 46 3.2 37.8
12:30 1010 29.83 839 24.78 15 58.9 44 2.9 37.3
12:35 1010 29.83 839 24.78 14 57.1 49 3.4 38.2
12:40 1010 29.83 839 24.78 14.2 57.6 44 2.3 36.1
12:45 1010 29.83 839 24.78 15.4 59.8 43 2.9 37.3
12:50 1010 29.83 839 24.78 14.9 58.8 45 3.3 37.9
12:55 1010 29.83 839 24.78 15.3 59.5 41 2.4 36.3
13:00 1010 29.83 839 24.78 15.6 60 44 3.6 38.4
13:05 1010 29.83 839 24.78 15.2 59.4 43 2.7 36.8
13:10 1010 29.83 839 24.78 15.8 60.5 41 2.7 36.8
13:15 1010 29.83 839 24.78 16.2 61.1 40 2.7 36.8
13:20 1009 29.8 839 24.78 15.5 59.9 41 2.4 36.3
13:25 1009 29.8 839 24.78 16 60.8 38 1.9 35.5
13:30 1009 29.8 839 24.78 15.8 60.5 41 2.6 36.6
13:35 1009 29.8 838 24.75 16.3 61.4 36 1.5 34.7
13:40 1009 29.8 838 24.75 16.4 61.5 37 1.8 35.3
13:45 1009 29.8 838 24.75 16.7 62.1 37 2 35.5
13:50 1009 29.8 838 24.75 16.9 62.4 35 1.4 34.5
13:55 1009 29.8 838 24.75 17.5 63.4 34 1.4 34.5
14:00 1009 29.8 838 24.75 17.7 63.9 34 2 35.6
14:05 1009 29.8 838 24.75 17.6 63.6 35 1.9 35.4
14:10 1009 29.8 838 24.75 17.4 63.3 34 1.6 34.9
14:15 1009 29.8 838 24.75 17 62.6 34 1.2 34.2
14:20 1009 29.8 838 24.75 17.7 63.9 32 1 33.8
14:25 1008 29.77 838 24.75 17.6 63.7 35 2 35.6
14:30 1008 29.77 838 24.75 17.1 62.7 35 1.4 34.6
14:35 1008 29.77 838 24.75 16.8 62.2 35 1.4 34.5
14:40 1008 29.77 837 24.72 15.5 59.8 39 1.5 34.8
14:45 1008 29.77 838 24.75 15.9 60.7 39 2 35.7
14:50 1008 29.77 838 24.75 15.5 59.8 40 2 35.5
14:55 1008 29.77 838 24.75 14.9 58.8 45 3.1 37.5
15:00 1008 29.77 838 24.75 14.6 58.3 47 3.4 38.1
15:05 1008 29.77 838 24.75 14 57.1 47 3 37.4
15:10 1008 29.77 837 24.72 13.2 55.7 53 3.9 39.1
15:15 1008 29.77 837 24.72 12.9 55.1 57 4.6 40.3
15:20 1008 29.77 837 24.72 12.6 54.6 59 4.7 40.5
15:25 1008 29.77 837 24.72 12.4 54.3 65 6.1 43.1
15:30 1008 29.77 837 24.72 13.4 56 55 4.5 40
15:35 1008 29.77 837 24.72 14.2 57.5 51 4.2 39.5
15:40 1008 29.77 837 24.72 14.1 57.3 46 2.7 36.8
15:45 1008 29.77 837 24.72 13.7 56.7 50 3.5 38.2
15:50 1008 29.77 837 24.72 13.9 57.1 47 2.9 37.3
15:55 1008 29.77 837 24.72 14 57.2 47 3 37.3
16:00 1008 29.77 837 24.72 14.1 57.3 48 3.2 37.8
16:05 1008 29.77 837 24.72 14.1 57.3 49 3.5 38.4
16:10 1008 29.77 837 24.72 14.2 57.5 48 3.4 38.1
16:15 1008 29.77 837 24.72 14.5 58 46 3.1 37.5
16:20 1008 29.77 837 24.72 14.8 58.6 46 3.3 38
16:25 1008 29.77 837 24.72 15 58.9 42 2.4 36.3
16:30 1008 29.77 837 24.72 15.5 59.8 42 2.7 36.9
16:35 1008 29.77 837 24.72 15.5 59.9 38 1.5 34.7
16:40 1008 29.77 837 24.72 15.2 59.4 40 1.9 35.4
16:45 1008 29.77 837 24.72 15.7 60.3 40 2.4 36.3
16:50 1007 29.74 837 24.72 16 60.7 39 2.2 36
16:55 1007 29.74 837 24.72 15.7 60.2 39 1.8 35.2
17:00 1007 29.74 837 24.72 15.6 60.1 40 2 35.6
17:05 1007 29.74 837 24.72 15.6 60.1 40 2 35.6
17:10 1007 29.74 836 24.69 15.3 59.5 39 1.7 35
17:15 1007 29.74 836 24.69 15.3 59.5 38 1 33.8
17:20 1007 29.74 836 24.69 15.2 59.3 38 1.1 33.9
17:25 1007 29.74 836 24.69 15.1 59.1 40 1.6 34.8
17:30 1007 29.74 836 24.69 15.2 59.3 40 1.9 35.3
17:35 1007 29.74 836 24.69 15.1 59.2 42 2.5 36.5
17:40 1007 29.74 836 24.69 14.7 58.4 41 1.7 35.1
17:45 1007 29.74 836 24.69 14.6 58.2 45 2.7 36.9
17:50 1007 29.74 836 24.69 14.4 58 42 1.6 35
17:55 1007 29.74 836 24.69 14.6 58.2 34 -1.1 30.1
18:00 1007 29.74 836 24.69 14.7 58.4 33 -1.2 29.9
18:05 1007 29.74 836 24.69 14.6 58.3 33 -1.4 29.4
18:10 1007 29.74 836 24.69 14.5 58 34 -1.3 29.7
18:15 1007 29.74 836 24.69 14.4 57.8 34 -1.3 29.6
18:20 1007 29.74 836 24.69 14.3 57.8 36 -0.5 31
18:25 1007 29.74 836 24.69 14 57.2 36 -0.6 31
18:30 1007 29.74 836 24.69 13.8 56.8 38 -0.4 31.3
18:35 1007 29.74 836 24.69 13.5 56.3 39 -0.1 31.7
18:40 1007 29.74 836 24.69 13.3 56 39 -0.3 31.5
18:45 1007 29.74 836 24.69 13.3 56 39 -0.4 31.3
18:50 1007 29.74 836 24.69 13.2 55.8 39 -0.3 31.5
18:55 1007 29.74 836 24.69 13.1 55.6 40 -0.1 31.8
19:00 1007 29.74 836 24.69 13.1 55.5 40 -0.2 31.6
19:05 1007 29.74 836 24.69 13 55.4 39 -0.5 31.1
19:10 1007 29.74 836 24.69 12.8 55 41 -0.1 31.9
19:15 1007 29.74 836 24.69 12.5 54.6 43 0.3 32.5
19:20 1007 29.74 836 24.69 12.4 54.2 42 -0.2 31.6
19:25 1007 29.74 836 24.69 12.4 54.2 41 -0.4 31.4
19:30 1007 29.74 836 24.69 12.3 54.2 43 0.2 32.3
19:35 1007 29.74 836 24.69 12.2 53.9 46 0.8 33.5
19:40 1007 29.74 836 24.69 11.9 53.4 47 1 33.8
19:45 1007 29.74 836 24.69 11.9 53.3 48 1.2 34.2
19:50 1007 29.74 836 24.69 11.7 53.1 49 1.5 34.7
19:55 1007 29.74 836 24.69 11.7 53.1 50 1.6 34.8
20:00 1007 29.74 836 24.69 11.7 53 51 1.8 35.3
20:05 1007 29.74 836 24.69 11.6 52.8 52 2 35.7
20:10 1007 29.74 836 24.69 11.6 52.8 51 2 35.5
20:15 1007 29.74 836 24.69 11.6 53 49 1.5 34.6
20:20 1007 29.74 836 24.69 11.6 52.9 48 1.1 34
20:25 1007 29.74 837 24.72 11.6 52.9 49 1.4 34.5
20:30 1007 29.74 837 24.72 11.6 52.9 49 1.2 34.2
20:35 1007 29.74 837 24.72 11.7 53 48 1 33.8
20:40 1008 29.77 837 24.72 11.9 53.4 46 0.6 33
20:45 1008 29.77 837 24.72 12.3 54.1 43 0 32
20:50 1008 29.77 837 24.72 12.1 53.9 42 -0.2 31.7
20:55 1008 29.77 837 24.72 12.1 53.7 43 -0.2 31.7
21:00 1008 29.77 837 24.72 12 53.6 43 -0.2 31.6
21:05 1008 29.77 837 24.72 11.8 53.3 43 -0.2 31.6
21:10 1008 29.77 837 24.72 11.7 53 42 -0.6 30.9
21:15 1008 29.77 837 24.72 11.6 52.9 43 -0.4 31.2
21:20 1008 29.77 837 24.72 11.4 52.5 44 -0.4 31.4
21:25 1008 29.77 837 24.72 11.2 52.1 44 -0.5 31.1
21:30 1008 29.77 837 24.72 11.1 52 46 -0.1 31.7
21:35 1008 29.77 837 24.72 11 51.8 44 -0.7 30.8
21:40 1008 29.77 837 24.72 11 51.8 46 -0.3 31.5
21:45 1008 29.77 837 24.72 10.8 51.5 44 -0.9 30.4
21:50 1008 29.77 837 24.72 10.8 51.4 45 -0.5 31.1
21:55 1008 29.77 837 24.72 10.4 50.7 49 0.2 32.4
22:00 1008 29.77 837 24.72 10.3 50.5 46 -0.8 30.5
22:05 1008 29.77 837 24.72 10.6 51.1 46 -0.6 31
22:10 1008 29.77 837 24.72 10.5 51 49 0.3 32.6
22:15 1008 29.77 837 24.72 10 50 54 1.1 34.1
22:20 1008 29.77 837 24.72 10 50 54 1.2 34.2
22:25 1008 29.77 837 24.72 9.8 49.6 56 1.4 34.6
22:30 1008 29.77 837 24.72 9.6 49.3 56 1.3 34.4
22:35 1008 29.77 837 24.72 9.4 48.9 58 1.5 34.6
22:40 1008 29.77 837 24.72 9.3 48.7 58 1.5 34.7
22:45 1008 29.77 837 24.72 9.2 48.5 59 1.6 34.8
22:50 1008 29.77 837 24.72 9.1 48.3 60 1.7 35.1
22:55 1008 29.77 837 24.72 9 48.1 60 1.6 34.9
23:00 1008 29.77 837 24.72 9 48.2 60 1.7 35
23:05 1008 29.77 837 24.72 9.1 48.3 60 1.8 35.2
23:10 1008 29.77 837 24.72 9.1 48.4 59 1.5 34.7
23:15 1008 29.77 837 24.72 9.2 48.6 58 1.5 34.7
23:20 1008 29.77 837 24.72 9.2 48.6 58 1.5 34.7
23:25 1008 29.77 837 24.72 9.2 48.5 57 1.2 34.2
23:30 1008 29.77 837 24.72 9.3 48.7 57 1.3 34.4
23:35 1008 29.77 837 24.72 9.3 48.8 56 1.1 34
23:40 1008 29.77 837 24.72 9.4 48.9 57 1.4 34.5
23:45 1008 29.77 837 24.72 9.3 48.7 60 1.9 35.4
23:50 1008 29.77 837 24.72 8.7 47.7 61 1.6 34.9
23:55 1008 29.77 837 24.72 8.6 47.5 56 0.3 32.6
24:00 1008 29.77 837 24.72 8.8 47.8 56 0.5 32.9